CST,Max TemperatureF,Mean TemperatureF,Min TemperatureF,Max Dew PointF,MeanDew PointF,Min DewpointF,Max Humidity, Mean Humidity, Min Humidity, Max Sea Level PressureIn, Mean Sea Level PressureIn, Min Sea Level PressureIn, Max VisibilityMiles, Mean VisibilityMiles, Min VisibilityMiles, Max Wind SpeedMPH, Mean Wind SpeedMPH, Max Gust SpeedMPH,PrecipitationIn, CloudCover, Events, WindDirDegrees
2013-2-1,72,63,54,57,52,48,89,67,47,30.33,30.26,30.21,10,10,9,15,8,21,0.00,3,,108
2013-2-2,75,70,64,62,60,57,87,73,58,30.24,30.19,30.15,10,10,9,15,7,,0.00,5,,112
2013-2-3,75,68,61,61,59,56,93,72,51,30.28,30.18,30.04,10,10,5,17,6,,0.00,1,,98
2013-2-4,84,75,66,64,62,58,87,68,43,30.01,29.90,29.79,10,9,8,20,11,31,0.00,3,,166
2013-2-5,86,75,64,70,67,62,94,82,48,29.97,29.90,29.86,9,7,4,17,8,21,0.00,2,,140
2013-2-6,84,78,70,70,69,66,94,81,55,29.94,29.89,29.76,8,7,5,22,10,29,0.00,6,,134
2013-2-7,81,75,68,70,68,66,94,85,67,29.99,29.92,29.86,7,5,0,14,3,,0.00,6,Fog,67
2013-2-8,72,68,64,68,64,58,96,84,61,30.16,30.06,29.98,10,6,0,18,7,28,0.00,5,Fog,19
2013-2-9,80,73,66,70,68,63,88,81,70,30.04,29.93,29.82,8,7,5,23,14,30,0.00,6,Rain,130
2013-2-10,88,80,73,71,69,68,88,77,53,29.87,29.80,29.75,8,7,6,25,18,37,0.00,3,,163
2013-2-11,79,74,68,70,68,64,94,85,72,29.94,29.88,29.82,6,4,0,12,5,55,0.00,8,Fog-Rain,16
2013-2-12,75,70,64,70,65,58,94,84,69,29.94,29.84,29.79,10,6,2,18,5,26,0.00,6,Rain,353
2013-2-13,66,62,57,60,51,43,84,67,50,30.14,30.05,29.95,10,9,9,22,13,30,0.00,3,,11
2013-2-14,71,60,50,52,47,43,86,61,38,30.14,30.08,30.04,10,10,9,13,7,16,0.00,0,,50
2013-2-15,73,62,51,55,50,46,83,62,46,30.24,30.12,30.04,10,10,9,16,8,23,0.00,0,,68
2013-2-16,66,58,48,52,42,35,74,55,34,30.46,30.36,30.25,10,10,9,23,13,32,0.00,3,,21
2013-2-17,73,60,48,58,49,41,80,62,41,30.29,30.15,30.02,10,9,6,25,12,33,0.00,4,,149
2013-2-18,82,74,66,64,62,59,84,66,48,30.00,29.94,29.87,9,8,5,30,18,38,0.00,5,,164
2013-2-19,73,66,59,64,61,55,94,82,64,30.16,30.06,30.00,8,5,0,21,7,26,0.00,5,Fog,80
2013-2-20,81,75,69,70,66,64,88,76,60,30.01,29.83,29.70,8,7,6,31,18,41,0.00,6,,144
2013-2-21,86,80,72,70,69,68,88,80,57,29.78,29.69,29.60,8,6,4,28,19,40,0.00,5,,147
2013-2-22,78,74,69,70,68,63,94,85,71,29.87,29.81,29.75,9,4,1,15,7,20,0.00,8,,35
2013-2-23,69,65,61,63,57,52,90,75,54,29.99,29.92,29.87,9,8,7,20,13,25,0.00,6,Rain,22
2013-2-24,75,70,64,68,64,59,90,79,71,29.90,29.75,29.62,9,7,6,15,9,20,0.00,5,,109
2013-2-25,81,68,55,70,47,5,88,52,6,29.88,29.67,29.54,10,7,5,33,14,44,0.00,5,Rain,289
2013-2-26,69,58,46,48,34,23,77,41,22,30.04,29.96,29.90,10,9,8,15,9,23,0.00,0,,345
2013-2-27,78,66,55,58,54,49,87,66,43,30.15,30.01,29.89,10,9,8,20,8,25,0.00,1,,98
2013-2-28,64,60,55,45,39,36,54,45,38,30.29,30.22,30.15,10,9,8,23,13,30,0.00,2,,18